createdAt,value
2023-04-02T00:00:36.399Z,75.10
2023-04-02T00:03:07.274Z,73.19
2023-04-02T00:05:36.832Z,72.18
2023-04-02T00:08:18.224Z,70.95
2023-04-02T00:10:51.717Z,71.76
2023-04-02T00:13:18.146Z,74.30
2023-04-02T00:15:49.010Z,72.63
2023-04-02T00:18:21.770Z,71.83
2023-04-02T00:20:55.096Z,70.88
2023-04-02T00:23:22.772Z,70.40
2023-04-02T00:25:49.303Z,69.97
2023-04-02T00:28:19.937Z,69.06
2023-04-02T00:30:56.089Z,68.58
2023-04-02T00:33:27.743Z,69.59
2023-04-02T00:35:56.085Z,68.93
2023-04-02T00:38:27.549Z,69.75
2023-04-02T00:40:58.329Z,69.68
2023-04-02T00:43:27.685Z,68.77
2023-04-02T00:45:59.097Z,68.33
2023-04-02T00:48:31.209Z,69.00
2023-04-02T00:51:12.981Z,70.15
2023-04-02T00:53:41.703Z,70.75
2023-04-02T00:56:18.757Z,68.87
2023-04-02T00:58:50.422Z,68.68
2023-04-02T01:01:25.626Z,68.32
2023-04-02T01:03:57.257Z,69.41
2023-04-02T01:06:30.607Z,71.76
2023-04-02T01:09:13.124Z,73.27
2023-04-02T01:11:54.750Z,71.95
2023-04-02T01:14:45.408Z,72.09
2023-04-02T01:17:56.008Z,76.38
2023-04-02T01:21:03.407Z,74.81
2023-04-02T01:23:58.465Z,72.87
2023-04-02T01:26:40.761Z,71.64
2023-04-02T01:29:18.923Z,70.90
2023-04-02T01:31:48.487Z,70.88
2023-04-02T01:34:20.275Z,71.69
2023-04-02T01:37:20.300Z,71.84
2023-04-02T01:40:20.530Z,74.00
2023-04-02T01:43:22.029Z,80.00
2023-04-02T01:45:49.557Z,83.71
2023-04-02T01:48:23.495Z,81.92
2023-04-02T01:50:54.749Z,79.40
2023-04-02T01:53:24.709Z,81.39
2023-04-02T01:55:55.604Z,79.22
2023-04-02T01:58:25.733Z,78.67
2023-04-02T02:00:54.915Z,76.66
2023-04-02T02:03:22.368Z,74.53
2023-04-02T02:05:50.682Z,72.60
2023-04-02T02:08:39.911Z,72.19
2023-04-02T02:11:11.786Z,72.32
2023-04-02T02:13:39.103Z,72.08
2023-04-02T02:16:12.424Z,73.04
2023-04-02T02:18:39.186Z,75.06
2023-04-02T02:21:10.044Z,79.04
2023-04-02T02:23:37.012Z,80.62
2023-04-02T02:26:06.324Z,77.40
2023-04-02T02:28:42.304Z,77.20
2023-04-02T02:31:33.751Z,76.15
2023-04-02T02:34:10.864Z,77.16
2023-04-02T02:37:03.959Z,80.95
2023-04-02T02:39:38.624Z,79.29
2023-04-02T02:42:27.517Z,80.79
2023-04-02T02:44:57.253Z,81.13
2023-04-02T02:47:31.517Z,82.05
2023-04-02T02:50:06.088Z,81.27
2023-04-02T02:52:36.735Z,77.90
2023-04-02T02:55:09.732Z,76.00
2023-04-02T02:57:46.657Z,74.79
2023-04-02T03:00:14.858Z,73.60
2023-04-02T03:02:42.768Z,72.11
2023-04-02T03:05:20.840Z,72.49
2023-04-02T03:07:51.231Z,71.71
2023-04-02T03:10:30.325Z,70.86
2023-04-02T03:13:18.138Z,70.84
2023-04-02T03:16:09.976Z,71.22
2023-04-02T03:18:42.317Z,70.58
2023-04-02T03:21:20.946Z,70.13
2023-04-02T03:23:55.202Z,69.68
2023-04-02T03:26:29.681Z,69.81
2023-04-02T03:29:15.113Z,70.69
2023-04-02T03:31:48.146Z,70.46
2023-04-02T03:34:55.479Z,70.34
2023-04-02T03:37:36.328Z,71.19
2023-04-02T03:40:15.304Z,70.14
2023-04-02T03:43:01.729Z,72.27
2023-04-02T03:45:41.015Z,72.78
2023-04-02T03:48:20.728Z,75.96
2023-04-02T03:51:17.782Z,76.29
2023-04-02T03:53:46.384Z,74.99
2023-04-02T03:56:28.963Z,73.86
2023-04-02T03:59:12.112Z,73.42
2023-04-02T04:01:53.743Z,73.06
2023-04-02T04:04:23.508Z,72.78
2023-04-02T04:06:52.715Z,73.80
2023-04-02T04:09:22.190Z,73.85
2023-04-02T04:12:07.971Z,73.05
2023-04-02T04:14:45.932Z,72.31
2023-04-02T04:17:25.272Z,71.41
2023-04-02T04:20:13.546Z,71.05
2023-04-02T04:22:40.025Z,70.57
2023-04-02T04:25:20.691Z,70.91
2023-04-02T04:28:01.604Z,72.08
2023-04-02T04:30:49.420Z,72.34
2023-04-02T04:33:30.248Z,72.32
2023-04-02T04:36:00.288Z,71.95
2023-04-02T04:38:33.749Z,71.27
2023-04-02T04:41:30.089Z,73.72
2023-04-02T04:44:02.616Z,72.66
2023-04-02T04:46:53.499Z,74.55
2023-04-02T04:49:22.976Z,75.46
2023-04-02T04:51:58.009Z,75.39
2023-04-02T04:54:28.640Z,76.13
2023-04-02T04:57:01.626Z,75.35
2023-04-02T04:59:39.826Z,74.48
2023-04-02T05:02:17.988Z,73.30
2023-04-02T05:04:50.215Z,72.34
2023-04-02T05:07:42.924Z,73.02
2023-04-02T05:10:54.401Z,73.36
2023-04-02T05:13:31.852Z,74.23
2023-04-02T05:16:32.033Z,73.08
2023-04-02T05:19:17.103Z,73.39
2023-04-02T05:21:53.538Z,73.90
2023-04-02T05:24:19.935Z,72.49
2023-04-02T05:26:51.759Z,73.60
2023-04-02T05:29:29.845Z,72.71
2023-04-02T05:32:13.305Z,72.26
2023-04-02T05:34:45.398Z,73.03
2023-04-02T05:37:21.481Z,72.35
2023-04-02T05:39:55.581Z,72.32
2023-04-02T05:42:29.096Z,72.21
2023-04-02T05:45:19.638Z,72.41
2023-04-02T05:47:51.587Z,72.78
2023-04-02T05:50:32.515Z,72.62
2023-04-02T05:53:08.428Z,73.16
2023-04-02T05:56:02.755Z,72.61
2023-04-02T05:58:38.133Z,73.53
2023-04-02T06:01:22.367Z,73.06
2023-04-02T06:04:16.603Z,73.13
2023-04-02T06:06:58.060Z,72.43
2023-04-02T06:09:38.196Z,71.88
2023-04-02T06:12:29.612Z,72.66
2023-04-02T06:14:56.377Z,72.88
2023-04-02T06:17:23.312Z,70.51
2023-04-02T06:19:51.135Z,71.44
2023-04-02T06:22:34.666Z,71.25
2023-04-02T06:25:24.791Z,70.55
2023-04-02T06:27:56.531Z,69.88
2023-04-02T06:30:33.341Z,71.09
2023-04-02T06:33:04.610Z,70.30
2023-04-02T06:35:35.592Z,71.37
2023-04-02T06:38:06.729Z,71.24
2023-04-02T06:40:44.948Z,71.51
2023-04-02T06:43:18.956Z,70.79
2023-04-02T06:45:51.786Z,70.65
2023-04-02T06:48:20.368Z,75.18
2023-04-02T06:51:05.302Z,73.99
2023-04-02T06:53:38.800Z,73.24
2023-04-02T06:56:17.060Z,70.39
2023-04-02T06:58:43.533Z,69.30
2023-04-02T07:01:23.045Z,67.50
2023-04-02T07:03:50.031Z,67.47
2023-04-02T07:06:19.619Z,67.18
2023-04-02T07:08:46.731Z,68.05
2023-04-02T07:11:20.809Z,68.27
2023-04-02T07:13:50.618Z,68.47
2023-04-02T07:16:20.624Z,69.52
2023-04-02T07:18:48.333Z,70.69
2023-04-02T07:21:14.904Z,70.68
2023-04-02T07:23:41.416Z,69.92
2023-04-02T07:26:12.663Z,70.04
2023-04-02T07:28:39.180Z,70.12
2023-04-02T07:31:16.139Z,69.65
2023-04-02T07:33:42.634Z,69.72
2023-04-02T07:36:13.954Z,70.33
2023-04-02T07:38:40.449Z,70.43
2023-04-02T07:41:07.024Z,70.78
2023-04-02T07:43:34.743Z,70.96
2023-04-02T07:46:01.751Z,70.79
2023-04-02T07:48:28.316Z,71.30
2023-04-02T07:50:54.848Z,70.29
2023-04-02T07:53:39.449Z,69.93
2023-04-02T07:56:06.237Z,68.43
2023-04-02T07:58:33.805Z,67.14
2023-04-02T08:01:01.291Z,66.81
2023-04-02T08:03:27.974Z,66.60
2023-04-02T08:05:57.477Z,66.08
2023-04-02T08:08:25.376Z,66.66
2023-04-02T08:10:51.836Z,66.03
2023-04-02T08:13:18.998Z,65.99
2023-04-02T08:15:45.517Z,65.50
2023-04-02T08:18:12.128Z,65.12
2023-04-02T08:20:38.634Z,64.96
2023-04-02T08:23:05.441Z,67.13
2023-04-02T08:25:31.897Z,67.03
2023-04-02T08:27:58.350Z,67.69
2023-04-02T08:30:25.253Z,67.91
2023-04-02T08:32:51.840Z,67.50
2023-04-02T08:35:18.416Z,67.46
2023-04-02T08:37:44.902Z,67.36
2023-04-02T08:40:27.115Z,66.90
2023-04-02T08:43:16.712Z,66.12
2023-04-02T08:46:09.397Z,66.25
2023-04-02T08:48:42.571Z,64.28
2023-04-02T08:51:23.176Z,64.60
2023-04-02T08:53:53.130Z,66.87
2023-04-02T08:57:01.690Z,66.48
2023-04-02T08:59:37.721Z,64.37
2023-04-02T09:02:37.553Z,63.81
2023-04-02T09:05:08.016Z,62.55
2023-04-02T09:07:34.697Z,60.59
2023-04-02T09:10:01.605Z,61.03
2023-04-02T09:12:31.038Z,60.50
2023-04-02T09:15:33.300Z,59.25
2023-04-02T09:18:12.873Z,59.38
2023-04-02T09:20:39.753Z,58.49
2023-04-02T09:23:15.724Z,58.10
2023-04-02T09:26:02.964Z,58.65
2023-04-02T09:28:30.424Z,59.85
2023-04-02T09:31:16.126Z,59.42
2023-04-02T09:33:49.208Z,59.43
2023-04-02T09:36:37.097Z,59.82
2023-04-02T09:39:18.221Z,59.84
2023-04-02T09:41:52.607Z,58.91
2023-04-02T09:44:28.425Z,59.13
2023-04-02T09:46:54.907Z,58.53
2023-04-02T09:49:29.586Z,57.83
2023-04-02T09:52:08.647Z,58.84
2023-04-02T09:54:35.673Z,59.62
2023-04-02T09:57:04.516Z,59.75
2023-04-02T09:59:31.022Z,60.51
2023-04-02T10:02:00.680Z,60.55
2023-04-02T10:04:45.925Z,60.35
2023-04-02T10:07:34.051Z,59.62
2023-04-02T10:10:19.293Z,58.43
2023-04-02T10:12:52.370Z,57.61
2023-04-02T10:15:27.406Z,57.68
2023-04-02T10:18:16.566Z,58.73
2023-04-02T10:20:51.330Z,59.21
2023-04-02T10:23:19.504Z,58.97
2023-04-02T10:26:00.395Z,58.24
2023-04-02T10:28:45.594Z,58.53
2023-04-02T10:31:22.893Z,60.56
2023-04-02T10:33:54.716Z,62.27
2023-04-02T10:36:47.739Z,62.26
2023-04-02T10:39:33.925Z,65.08
2023-04-02T10:42:36.462Z,66.64
2023-04-02T10:45:40.610Z,66.63
2023-04-02T10:49:04.232Z,67.93
2023-04-02T10:51:47.680Z,67.87
2023-04-02T10:54:41.191Z,69.27
2023-04-02T10:57:16.494Z,69.91
2023-04-02T11:00:11.027Z,71.12
2023-04-02T11:02:59.759Z,70.21
2023-04-02T11:05:54.110Z,68.17
2023-04-02T11:08:33.123Z,67.67
2023-04-02T11:11:07.246Z,68.55
2023-04-02T11:13:57.176Z,69.05
2023-04-02T11:16:24.809Z,68.65
2023-04-02T11:19:15.479Z,69.22
2023-04-02T11:22:06.638Z,68.80
2023-04-02T11:24:50.287Z,68.58
2023-04-02T11:27:30.285Z,68.40
2023-04-02T11:30:03.807Z,66.90
2023-04-02T11:32:35.134Z,65.38
2023-04-02T11:35:22.774Z,65.71
2023-04-02T11:37:49.452Z,67.83
2023-04-02T11:40:15.893Z,67.12
2023-04-02T11:42:48.037Z,64.20
2023-04-02T11:45:20.982Z,67.82
2023-04-02T11:48:00.031Z,66.87
2023-04-02T11:50:32.906Z,65.92
2023-04-02T11:53:06.492Z,64.69
2023-04-02T11:55:36.097Z,65.69
2023-04-02T11:58:17.675Z,67.21
2023-04-02T12:01:20.547Z,67.44
2023-04-02T12:04:01.160Z,67.04
2023-04-02T12:07:03.603Z,67.86
2023-04-02T12:09:44.299Z,67.26
2023-04-02T12:12:38.623Z,67.13
2023-04-02T12:15:27.976Z,65.54
2023-04-02T12:18:06.242Z,66.33
2023-04-02T12:20:34.173Z,64.86
2023-04-02T12:23:02.021Z,68.43
2023-04-02T12:25:32.786Z,67.85
2023-04-02T12:28:16.169Z,64.52
2023-04-02T12:30:42.658Z,66.25
2023-04-02T12:33:29.018Z,65.17
2023-04-02T12:36:01.389Z,66.55
2023-04-02T12:38:30.667Z,65.00
2023-04-02T12:41:00.033Z,65.08
2023-04-02T12:43:29.728Z,64.17
2023-04-02T12:46:00.041Z,64.19
2023-04-02T12:48:28.779Z,63.25
2023-04-02T12:50:57.284Z,63.69
2023-04-02T12:53:36.263Z,61.81
2023-04-02T12:56:04.491Z,60.89
2023-04-02T12:58:42.170Z,59.49
2023-04-02T13:01:29.797Z,57.55
2023-04-02T13:04:06.158Z,60.31
2023-04-02T13:06:34.797Z,57.69
2023-04-02T13:09:05.267Z,57.82
2023-04-02T13:11:37.873Z,55.88
2023-04-02T13:14:14.598Z,55.97
2023-04-02T13:16:41.224Z,57.05
2023-04-02T13:19:16.748Z,56.96
2023-04-02T13:21:44.585Z,56.95
2023-04-02T13:24:23.371Z,58.98
2023-04-02T13:26:53.378Z,59.80
2023-04-02T13:29:26.756Z,55.99
2023-04-02T13:31:56.527Z,55.81
2023-04-02T13:34:23.488Z,55.24
2023-04-02T13:36:50.134Z,55.05
2023-04-02T13:39:16.825Z,57.18
2023-04-02T13:41:46.414Z,56.45
2023-04-02T13:44:31.221Z,57.24
2023-04-02T13:47:00.622Z,59.28
2023-04-02T13:49:27.950Z,59.16
2023-04-02T13:52:05.135Z,57.38
2023-04-02T13:54:47.880Z,56.68
2023-04-02T13:57:15.146Z,57.14
2023-04-02T13:59:42.279Z,57.51
2023-04-02T14:02:14.184Z,56.38
2023-04-02T14:04:50.147Z,56.18
2023-04-02T14:07:47.406Z,53.66
2023-04-02T14:10:39.965Z,54.08
2023-04-02T14:13:06.455Z,53.13
2023-04-02T14:16:10.632Z,53.96
2023-04-02T14:19:07.596Z,54.83
2023-04-02T14:21:46.200Z,56.07
2023-04-02T14:24:36.121Z,56.59
2023-04-02T14:27:34.915Z,55.78
2023-04-02T14:30:16.419Z,55.25
2023-04-02T14:33:11.261Z,54.68
2023-04-02T14:35:43.771Z,56.19
2023-04-02T14:38:28.956Z,54.99
2023-04-02T14:41:07.337Z,55.01
2023-04-02T14:43:54.328Z,57.76
2023-04-02T14:46:26.168Z,56.38
2023-04-02T14:49:10.201Z,55.95
2023-04-02T14:51:41.083Z,55.19
2023-04-02T14:54:29.660Z,57.06
2023-04-02T14:57:33.363Z,55.23
2023-04-02T15:00:44.755Z,55.01
2023-04-02T15:03:30.119Z,55.23
2023-04-02T15:06:03.203Z,55.35
2023-04-02T15:08:44.645Z,55.60
2023-04-02T15:11:27.189Z,57.10
2023-04-02T15:14:10.087Z,58.54
2023-04-02T15:16:36.625Z,59.10
2023-04-02T15:19:12.100Z,59.43
2023-04-02T15:22:03.940Z,55.62
2023-04-02T15:24:52.622Z,57.71
2023-04-02T15:27:50.627Z,57.40
2023-04-02T15:30:29.119Z,59.68
2023-04-02T15:33:24.190Z,59.78
2023-04-02T15:36:14.197Z,58.90
2023-04-02T15:39:02.208Z,60.00
2023-04-02T15:41:41.412Z,60.12
2023-04-02T15:44:16.205Z,56.63
2023-04-02T15:46:57.500Z,55.19
2023-04-02T15:49:40.563Z,56.86
2023-04-02T15:52:41.075Z,58.62
2023-04-02T15:55:25.664Z,58.17
2023-04-02T15:58:29.516Z,56.71
2023-04-02T16:00:55.916Z,54.54
2023-04-02T16:03:54.689Z,56.46
2023-04-02T16:07:00.082Z,55.90
2023-04-02T16:09:29.120Z,55.99
2023-04-02T16:12:11.813Z,57.16
2023-04-02T16:14:40.820Z,56.95
2023-04-02T16:17:24.846Z,57.01
2023-04-02T16:20:00.610Z,59.77
2023-04-02T16:22:30.813Z,60.10
2023-04-02T16:25:11.486Z,60.75
2023-04-02T16:27:44.464Z,59.59
2023-04-02T16:30:25.054Z,60.91
2023-04-02T16:33:14.195Z,61.08
2023-04-02T16:36:09.513Z,59.58
2023-04-02T16:39:00.380Z,59.01
2023-04-02T16:41:57.895Z,59.42
2023-04-02T16:44:51.769Z,59.98
2023-04-02T16:47:34.470Z,60.91
2023-04-02T16:50:49.102Z,59.36
2023-04-02T16:53:35.846Z,60.92
2023-04-02T16:56:27.392Z,61.03
2023-04-02T16:59:19.872Z,60.34
2023-04-02T17:02:38.509Z,60.62
2023-04-02T17:05:18.932Z,62.29
2023-04-02T17:08:10.918Z,62.99
2023-04-02T17:11:07.498Z,63.02
2023-04-02T17:13:48.382Z,63.82
2023-04-02T17:16:23.854Z,64.35
2023-04-02T17:18:55.927Z,67.96
2023-04-02T17:21:27.638Z,69.98
2023-04-02T17:23:57.960Z,68.58
2023-04-02T17:26:29.770Z,67.54
2023-04-02T17:29:01.232Z,65.85
2023-04-02T17:31:32.767Z,67.14
2023-04-02T17:34:00.183Z,67.65
2023-04-02T17:37:05.986Z,64.88
2023-04-02T17:40:00.930Z,63.36
2023-04-02T17:42:30.271Z,68.44
2023-04-02T17:45:44.315Z,68.61
2023-04-02T17:48:26.410Z,69.23
2023-04-02T17:51:14.484Z,68.75
2023-04-02T17:53:58.545Z,67.20
2023-04-02T17:56:38.264Z,67.77
2023-04-02T17:59:37.762Z,65.77
2023-04-02T18:02:31.398Z,68.93
2023-04-02T18:05:22.950Z,70.22
2023-04-02T18:08:16.827Z,71.07
2023-04-02T18:11:17.079Z,69.09
2023-04-02T18:13:59.455Z,71.55
2023-04-02T18:16:48.943Z,70.58
2023-04-02T18:19:18.252Z,68.88
2023-04-02T18:22:01.840Z,69.31
2023-04-02T18:24:59.228Z,71.34
2023-04-02T18:27:43.773Z,71.87
2023-04-02T18:30:49.178Z,68.97
2023-04-02T18:33:30.778Z,68.17
2023-04-02T18:36:27.911Z,66.05
2023-04-02T18:39:28.703Z,66.57
2023-04-02T18:42:18.156Z,65.42
2023-04-02T18:45:11.666Z,65.20
2023-04-02T18:47:56.538Z,65.00
2023-04-02T18:50:36.450Z,64.46
2023-04-02T18:53:18.868Z,64.80
2023-04-02T18:56:11.879Z,67.59
2023-04-02T18:58:46.256Z,68.79
2023-04-02T19:01:23.487Z,69.75
2023-04-02T19:04:02.134Z,67.35
2023-04-02T19:07:24.081Z,66.50
2023-04-02T19:10:08.866Z,65.40
2023-04-02T19:12:44.110Z,65.22
2023-04-02T19:15:19.761Z,65.01
2023-04-02T19:18:11.438Z,65.07
2023-04-02T19:21:04.684Z,64.46
2023-04-02T19:24:31.284Z,65.51
2023-04-02T19:27:16.450Z,65.96
2023-04-02T19:30:03.062Z,65.14
2023-04-02T19:32:51.234Z,65.75
2023-04-02T19:35:29.682Z,65.08
2023-04-02T19:38:18.549Z,64.53
2023-04-02T19:41:08.122Z,65.86
2023-04-02T19:43:34.822Z,66.30
2023-04-02T19:46:02.995Z,65.92
2023-04-02T19:48:54.869Z,65.62
2023-04-02T19:51:21.360Z,65.42
2023-04-02T19:53:47.828Z,66.07
2023-04-02T19:56:14.292Z,65.65
2023-04-02T19:58:40.778Z,65.72
2023-04-02T20:01:07.241Z,66.19
2023-04-02T20:03:33.821Z,66.95
2023-04-02T20:06:00.491Z,66.99
2023-04-02T20:08:28.335Z,65.78
2023-04-02T20:10:56.938Z,66.43
2023-04-02T20:13:23.444Z,65.59
2023-04-02T20:15:49.934Z,65.25
2023-04-02T20:18:16.715Z,65.14
2023-04-02T20:20:48.958Z,65.20
2023-04-02T20:23:16.854Z,64.14
2023-04-02T20:25:48.420Z,64.18
2023-04-02T20:28:14.974Z,64.66
2023-04-02T20:30:41.504Z,63.88
2023-04-02T20:33:08.137Z,63.69
2023-04-02T20:35:34.824Z,65.05
2023-04-02T20:38:01.366Z,64.34
2023-04-02T20:40:27.833Z,64.33
2023-04-02T20:42:54.292Z,64.53
2023-04-02T20:45:20.778Z,64.75
2023-04-02T20:47:47.297Z,64.86
2023-04-02T20:50:13.855Z,66.41
2023-04-02T20:52:40.329Z,66.13
2023-04-02T20:55:07.651Z,64.99
2023-04-02T20:57:34.230Z,64.12
2023-04-02T21:00:00.745Z,63.73
2023-04-02T21:02:27.220Z,63.82
2023-04-02T21:04:53.818Z,63.91
2023-04-02T21:07:20.325Z,64.47
2023-04-02T21:09:46.941Z,63.70
2023-04-02T21:12:13.574Z,63.14
2023-04-02T21:14:40.071Z,62.72
2023-04-02T21:17:07.356Z,62.81
2023-04-02T21:19:34.926Z,63.61
2023-04-02T21:22:01.418Z,64.37
2023-04-02T21:24:27.944Z,63.96
2023-04-02T21:26:54.854Z,64.74
2023-04-02T21:29:21.342Z,64.73
2023-04-02T21:31:48.023Z,65.48
2023-04-02T21:34:16.624Z,64.92
2023-04-02T21:36:46.002Z,64.50
2023-04-02T21:39:20.791Z,64.40
2023-04-02T21:41:49.556Z,63.96
2023-04-02T21:44:18.224Z,64.38
2023-04-02T21:46:45.505Z,63.62
2023-04-02T21:49:15.345Z,63.58
2023-04-02T21:51:43.628Z,63.96
2023-04-02T21:54:10.063Z,64.34
2023-04-02T21:56:41.999Z,64.00
2023-04-02T21:59:10.942Z,63.88
2023-04-02T22:01:41.397Z,63.77
2023-04-02T22:04:14.400Z,62.90
2023-04-02T22:06:41.475Z,62.91
2023-04-02T22:09:11.390Z,63.07
2023-04-02T22:11:44.183Z,63.88
2023-04-02T22:14:11.642Z,64.75
2023-04-02T22:16:39.365Z,64.31
2023-04-02T22:19:09.475Z,65.41
2023-04-02T22:21:37.349Z,65.94
2023-04-02T22:24:06.336Z,65.89
2023-04-02T22:26:34.114Z,67.30
2023-04-02T22:29:01.626Z,68.97
2023-04-02T22:31:30.196Z,66.79
2023-04-02T22:33:57.545Z,65.39
2023-04-02T22:36:26.867Z,64.55
2023-04-02T22:38:53.770Z,64.65
2023-04-02T22:41:29.960Z,64.65
2023-04-02T22:43:57.541Z,63.67
2023-04-02T22:46:25.924Z,64.15
2023-04-02T22:48:52.848Z,63.00
2023-04-02T22:51:21.896Z,63.11
2023-04-02T22:53:49.527Z,63.21
2023-04-02T22:56:19.117Z,63.90
2023-04-02T22:58:46.222Z,63.93
2023-04-02T23:01:17.387Z,63.31
2023-04-02T23:03:44.578Z,63.48
2023-04-02T23:06:14.589Z,63.58
2023-04-02T23:08:42.069Z,63.11
2023-04-02T23:11:12.433Z,63.22
2023-04-02T23:13:40.172Z,63.03
2023-04-02T23:16:10.145Z,62.79
2023-04-02T23:18:38.512Z,63.53
2023-04-02T23:21:06.220Z,63.60
2023-04-02T23:23:34.023Z,63.34
2023-04-02T23:26:04.450Z,62.94
2023-04-02T23:28:30.959Z,62.89
2023-04-02T23:30:57.634Z,62.13
2023-04-02T23:33:24.106Z,62.06
2023-04-02T23:35:50.605Z,61.55
2023-04-02T23:38:17.095Z,61.61
2023-04-02T23:40:43.579Z,61.12
2023-04-02T23:43:10.133Z,61.46
2023-04-02T23:45:36.630Z,61.60
2023-04-02T23:48:04.383Z,61.64
2023-04-02T23:50:30.918Z,61.66
2023-04-02T23:52:57.429Z,63.37
2023-04-02T23:55:23.956Z,65.96
2023-04-02T23:57:50.401Z,64.27
